Time;durP1;ratioP1;P1;durP2;ratioP2;P2;SDS_P1;SDS_P2;PMS_P1;PMS_P2;Temp;Humidity;BMP_temperature;BMP_pressure;BME280_temperature;BME280_humidity;BME280_pressure;Samples;Min_cycle;Max_cycle;Signal;HPM_P1;HPM_P2
2023/01/28 00:01:26;;;;;;;1.70;1.33;;;3.50;98.20;;;;;;6182138;22;20442;-74
2023/01/28 00:03:55;;;;;;;1.70;1.50;;;3.50;98.20;;;;;;6214958;23;20443;-75
2023/01/28 00:06:24;;;;;;;1.70;1.40;;;3.40;98.20;;;;;;6180167;22;20484;-75
2023/01/28 00:08:51;;;;;;;1.70;1.43;;;3.30;98.20;;;;;;6215842;23;20429;-74
2023/01/28 00:11:17;;;;;;;1.60;1.40;;;3.20;98.20;;;;;;6177549;22;20449;-74
2023/01/28 00:13:45;;;;;;;1.70;1.40;;;3.20;98.20;;;;;;6217417;23;20420;-74
2023/01/28 00:16:12;;;;;;;1.70;1.50;;;3.10;98.20;;;;;;6175334;22;20485;-75
2023/01/28 00:18:39;;;;;;;1.70;1.57;;;3.00;98.20;;;;;;6219117;23;20466;-73
2023/01/28 00:21:08;;;;;;;1.70;1.53;;;3.00;98.20;;;;;;6173644;22;20419;-74
2023/01/28 00:23:38;;;;;;;1.70;1.57;;;3.00;98.20;;;;;;6221437;23;20459;-73
2023/01/28 00:26:07;;;;;;;1.80;1.70;;;2.90;98.20;;;;;;6181199;22;20987;-74
2023/01/28 00:28:35;;;;;;;1.60;1.40;;;2.80;98.20;;;;;;6222585;23;20423;-73
2023/01/28 00:31:07;;;;;;;1.63;1.40;;;2.80;98.20;;;;;;6171610;22;20471;-73
2023/01/28 00:33:34;;;;;;;1.60;1.40;;;2.70;98.20;;;;;;6221259;23;20405;-73
2023/01/28 00:36:02;;;;;;;1.67;1.50;;;2.70;98.20;;;;;;6168973;22;20466;-75
2023/01/28 00:38:29;;;;;;;1.63;1.40;;;2.60;98.20;;;;;;6221737;23;20530;-74
2023/01/28 00:41:07;;;;;;;1.70;1.50;;;2.60;98.20;;;;;;6169766;22;20498;-76
2023/01/28 00:43:34;;;;;;;1.67;1.53;;;2.60;98.20;;;;;;6221284;23;20408;-74
2023/01/28 00:46:01;;;;;;;1.70;1.50;;;2.60;98.20;;;;;;6171568;22;20440;-73
2023/01/28 00:48:28;;;;;;;1.87;1.77;;;2.60;98.20;;;;;;6220460;23;20426;-74
2023/01/28 00:50:56;;;;;;;1.60;1.50;;;2.60;98.20;;;;;;6170990;22;20420;-75
2023/01/28 00:53:23;;;;;;;1.70;1.50;;;2.60;98.20;;;;;;6226285;23;20427;-72
2023/01/28 00:55:51;;;;;;;1.70;1.50;;;2.60;98.20;;;;;;6168079;22;20444;-73
2023/01/28 00:58:20;;;;;;;1.67;1.40;;;2.60;98.20;;;;;;6226025;23;20451;-74
2023/01/28 01:00:47;;;;;;;1.67;1.50;;;2.60;98.20;;;;;;6175019;22;20420;-76
2023/01/28 01:03:14;;;;;;;1.63;1.43;;;2.60;98.20;;;;;;6229313;23;20431;-74
2023/01/28 01:05:41;;;;;;;1.70;1.60;;;2.60;98.20;;;;;;6180581;23;20559;-73
2023/01/28 01:08:08;;;;;;;1.70;1.50;;;2.60;98.20;;;;;;6212959;22;20453;-74
2023/01/28 01:10:37;;;;;;;1.63;1.40;;;2.70;98.20;;;;;;6180873;23;20499;-74
2023/01/28 01:13:05;;;;;;;1.60;1.40;;;2.70;98.20;;;;;;6215272;22;21054;-76
2023/01/28 01:15:33;;;;;;;1.60;1.40;;;2.70;98.20;;;;;;6180708;23;20951;-73
2023/01/28 01:18:00;;;;;;;1.70;1.53;;;2.70;98.20;;;;;;6213448;22;21027;-75
2023/01/28 01:20:38;;;;;;;1.67;1.50;;;2.70;98.20;;;;;;6179883;23;20451;-75
2023/01/28 01:23:05;;;;;;;1.70;1.50;;;2.60;98.20;;;;;;6214228;22;20450;-74
2023/01/28 01:25:35;;;;;;;1.63;1.40;;;2.60;98.20;;;;;;6180779;23;20440;-75
2023/01/28 01:28:02;;;;;;;1.60;1.40;;;2.60;98.20;;;;;;6213916;22;20835;-76
2023/01/28 01:30:29;;;;;;;1.63;1.50;;;2.50;98.20;;;;;;6183095;23;20486;-72
2023/01/28 01:32:58;;;;;;;1.63;1.50;;;2.50;98.20;;;;;;6214495;22;21054;-75
2023/01/28 01:35:26;;;;;;;1.80;1.50;;;2.50;98.20;;;;;;6182195;23;20527;-76
2023/01/28 01:37:53;;;;;;;1.63;1.40;;;2.50;98.20;;;;;;6212686;22;20441;-73
2023/01/28 01:40:20;;;;;;;1.70;1.60;;;2.40;98.20;;;;;;6180605;23;20474;-74
2023/01/28 01:42:47;;;;;;;1.70;1.50;;;2.50;98.20;;;;;;6215727;22;20547;-75
2023/01/28 01:45:15;;;;;;;1.73;1.63;;;2.50;98.20;;;;;;6180791;23;20447;-76
2023/01/28 01:47:48;;;;;;;1.63;1.40;;;2.50;98.20;;;;;;6211962;22;20500;-74
2023/01/28 01:50:24;;;;;;;1.70;1.50;;;2.50;98.20;;;;;;6181892;23;20427;-73
2023/01/28 01:52:59;;;;;;;1.70;1.50;;;2.50;98.20;;;;;;6215801;22;20456;-72
2023/01/28 01:55:30;;;;;;;1.70;1.50;;;2.40;98.20;;;;;;6182742;23;20440;-73
2023/01/28 01:58:01;;;;;;;1.70;1.50;;;2.40;98.20;;;;;;6213365;22;20984;-76
2023/01/28 02:00:28;;;;;;;1.63;1.40;;;2.40;98.20;;;;;;6182912;23;20404;-74
2023/01/28 02:02:55;;;;;;;1.67;1.50;;;2.40;98.20;;;;;;6215906;22;20446;-78
2023/01/28 02:05:24;;;;;;;1.70;1.50;;;2.40;98.20;;;;;;6183074;23;20502;-76
2023/01/28 02:08:19;;;;;;;1.70;1.43;;;2.40;98.20;;;;;;6215462;22;20470;-76
2023/01/28 02:10:44;;;;;;;1.63;1.40;;;2.40;98.20;;;;;;6181799;23;20420;-77
2023/01/28 02:13:11;;;;;;;2.10;1.90;;;2.40;98.20;;;;;;6166779;23;20432;-73
2023/01/28 02:15:39;;;;;;;1.67;1.50;;;2.40;98.20;;;;;;6182229;23;20436;-72
2023/01/28 02:18:06;;;;;;;1.63;1.40;;;2.40;98.20;;;;;;6212510;22;20757;-74
2023/01/28 02:20:52;;;;;;;1.67;1.40;;;2.40;98.20;;;;;;6183114;23;20456;-76
2023/01/28 02:23:40;;;;;;;1.70;1.60;;;2.40;98.20;;;;;;6166421;23;20439;-73
2023/01/28 02:26:42;;;;;;;1.67;1.50;;;2.40;98.20;;;;;;6176610;22;20442;-75
2023/01/28 02:29:17;;;;;;;1.70;1.50;;;2.40;98.20;;;;;;6208449;23;20831;-74
2023/01/28 02:31:53;;;;;;;1.60;1.50;;;2.40;98.20;;;;;;6195933;22;20445;-76
2023/01/28 02:34:30;;;;;;;1.60;1.43;;;2.40;98.20;;;;;;6202190;23;20962;-75
2023/01/28 02:37:03;;;;;;;1.67;1.50;;;2.40;98.20;;;;;;6196672;22;20501;-73
2023/01/28 02:39:41;;;;;;;1.70;1.57;;;2.40;98.20;;;;;;6205488;23;20428;-73
2023/01/28 02:42:15;;;;;;;1.70;1.50;;;2.50;98.20;;;;;;6198195;22;20446;-75
2023/01/28 02:44:43;;;;;;;1.67;1.50;;;2.50;98.20;;;;;;6193356;23;21068;-76
2023/01/28 02:49:58;;;;;;;1.67;1.50;;;2.50;98.20;;;;;;6185934;23;20436;-76
2023/01/28 02:55:39;;;;;;;1.63;1.40;;;2.50;98.20;;;;;;6192650;23;20841;-76
2023/01/28 02:58:17;;;;;;;2.03;1.83;;;2.50;98.20;;;;;;6212791;22;20441;-75
2023/01/28 03:00:53;;;;;;;1.63;1.50;;;2.50;98.20;;;;;;6179790;23;20408;-75
2023/01/28 03:03:28;;;;;;;1.63;1.50;;;2.50;98.20;;;;;;6166583;23;20432;-75
2023/01/28 03:06:06;;;;;;;1.73;1.63;;;2.50;98.20;;;;;;6168695;22;20436;-74
2023/01/28 03:36:48;;;;;;;1.67;1.47;;;2.60;98.20;;;;;;6183502;22;20511;-72
2023/01/28 03:39:17;;;;;;;1.67;1.50;;;2.60;98.20;;;;;;6205055;23;20478;-73
2023/01/28 03:41:56;;;;;;;1.70;1.43;;;2.60;98.20;;;;;;6194636;22;20540;-72
2023/01/28 03:47:10;;;;;;;1.60;1.40;;;2.70;98.20;;;;;;6198051;22;20453;-74
2023/01/28 03:49:40;;;;;;;1.80;1.70;;;2.70;98.20;;;;;;6195509;23;20404;-76
2023/01/28 03:52:07;;;;;;;1.67;1.43;;;2.60;98.20;;;;;;6198028;22;20446;-75
2023/01/28 03:54:36;;;;;;;1.60;1.50;;;2.70;98.20;;;;;;6197811;23;20451;-74
2023/01/28 03:57:09;;;;;;;1.70;1.50;;;2.70;98.20;;;;;;6198287;22;20459;-74
2023/01/28 03:59:37;;;;;;;1.63;1.40;;;2.60;98.20;;;;;;6196117;23;20447;-74
2023/01/28 04:02:05;;;;;;;1.67;1.40;;;2.60;98.20;;;;;;6198574;22;20560;-74
2023/01/28 04:04:32;;;;;;;1.70;1.60;;;2.60;98.20;;;;;;6198281;23;20447;-74
2023/01/28 04:07:00;;;;;;;1.60;1.40;;;2.60;98.20;;;;;;6194762;22;20452;-75
2023/01/28 04:09:28;;;;;;;1.60;1.37;;;2.60;98.20;;;;;;6200354;23;20431;-74
2023/01/28 04:11:55;;;;;;;1.70;1.40;;;2.60;98.20;;;;;;6200258;22;20497;-75
2023/01/28 04:14:22;;;;;;;1.70;1.53;;;2.60;98.20;;;;;;6201440;23;20420;-74
2023/01/28 04:16:50;;;;;;;1.60;1.40;;;2.60;98.20;;;;;;6189013;22;20449;-72
2023/01/28 04:19:18;;;;;;;1.60;1.40;;;2.60;98.20;;;;;;6204521;23;20451;-76
2023/01/28 04:21:46;;;;;;;1.70;1.50;;;2.60;98.20;;;;;;6190620;22;20452;-72
2023/01/28 04:24:14;;;;;;;2.53;2.33;;;2.60;98.20;;;;;;6205956;23;20431;-76
2023/01/28 04:26:44;;;;;;;1.67;1.47;;;2.60;98.20;;;;;;6192883;22;20511;-73
2023/01/28 04:29:11;;;;;;;1.70;1.60;;;2.60;98.20;;;;;;6207288;23;20416;-74
2023/01/28 04:31:38;;;;;;;1.70;1.40;;;2.50;98.20;;;;;;6183541;22;20445;-74
2023/01/28 04:34:06;;;;;;;1.70;1.50;;;2.50;98.20;;;;;;6206707;23;20511;-73
2023/01/28 04:36:36;;;;;;;1.70;1.50;;;2.50;98.20;;;;;;6183542;22;20446;-72
2023/01/28 04:39:04;;;;;;;1.70;1.50;;;2.50;98.20;;;;;;6204646;23;21052;-73
2023/01/28 04:41:32;;;;;;;1.70;1.60;;;2.50;98.20;;;;;;6182476;22;20867;-72
2023/01/28 04:43:59;;;;;;;1.67;1.43;;;2.50;98.20;;;;;;6208823;23;20424;-74
2023/01/28 04:46:26;;;;;;;1.60;1.50;;;2.50;98.20;;;;;;6188740;22;20450;-74
2023/01/28 04:48:53;;;;;;;2.73;2.53;;;2.50;98.20;;;;;;6210375;23;20802;-75
2023/01/28 04:51:21;;;;;;;1.70;1.60;;;2.50;98.20;;;;;;6175484;22;20446;-73
2023/01/28 04:53:48;;;;;;;1.67;1.50;;;2.50;98.20;;;;;;6214449;23;20757;-74
2023/01/28 04:56:15;;;;;;;1.67;1.50;;;2.50;98.20;;;;;;6174347;22;20530;-74
2023/01/28 04:58:45;;;;;;;1.70;1.60;;;2.50;98.20;;;;;;6217132;23;20486;-74
2023/01/28 05:01:12;;;;;;;1.60;1.50;;;2.50;98.20;;;;;;6174900;22;20952;-74
2023/01/28 05:03:40;;;;;;;1.67;1.50;;;2.50;98.20;;;;;;6217820;23;20424;-73
2023/01/28 05:06:07;;;;;;;1.63;1.50;;;2.50;98.20;;;;;;6173259;22;20926;-75
2023/01/28 05:08:34;;;;;;;1.60;1.50;;;2.50;98.20;;;;;;6219978;23;20474;-73
2023/01/28 05:11:02;;;;;;;1.60;1.40;;;2.50;98.20;;;;;;6167973;22;20490;-73
2023/01/28 05:13:29;;;;;;;1.70;1.60;;;2.40;98.20;;;;;;6222362;23;20475;-71
2023/01/28 05:15:57;;;;;;;1.70;1.50;;;2.40;98.20;;;;;;6176649;22;20448;-72
2023/01/28 05:18:24;;;;;;;1.70;1.50;;;2.40;98.20;;;;;;6232982;23;20430;-73
2023/01/28 05:20:51;;;;;;;1.70;1.50;;;2.40;98.20;;;;;;6166232;22;20650;-72
2023/01/28 05:23:18;;;;;;;1.70;1.50;;;2.40;98.20;;;;;;6227918;23;20467;-72
2023/01/28 05:25:45;;;;;;;1.70;1.53;;;2.40;98.20;;;;;;6180375;23;20447;-73
2023/01/28 05:28:12;;;;;;;1.60;1.40;;;2.40;98.20;;;;;;6189243;23;20825;-72
2023/01/28 05:30:40;;;;;;;1.60;1.40;;;2.30;98.20;;;;;;6179221;23;20419;-71
2023/01/28 05:33:08;;;;;;;1.67;1.50;;;2.30;98.20;;;;;;6212167;22;20441;-72
2023/01/28 05:35:36;;;;;;;1.60;1.40;;;2.40;98.20;;;;;;6179413;23;20762;-71
2023/01/28 05:38:03;;;;;;;1.60;1.50;;;2.40;98.20;;;;;;6213735;22;20804;-72
2023/01/28 05:40:30;;;;;;;1.63;1.50;;;2.40;98.20;;;;;;6178790;23;21129;-72
2023/01/28 05:42:57;;;;;;;1.63;1.40;;;2.30;98.20;;;;;;6214029;22;20525;-72
2023/01/28 05:45:25;;;;;;;1.67;1.50;;;2.30;98.20;;;;;;6179083;23;20522;-73
2023/01/28 07:30:19;;;;;;;1.60;1.40;;;2.20;98.20;;;;;;6140664;23;20421;-73
2023/01/28 07:32:47;;;;;;;1.67;1.50;;;2.10;98.20;;;;;;6180068;23;20530;-73
2023/01/28 07:35:14;;;;;;;1.67;1.50;;;2.10;98.20;;;;;;6147388;23;20440;-73
2023/01/28 07:38:00;;;;;;;1.67;1.50;;;2.10;98.20;;;;;;6179102;23;20451;-73
2023/01/28 07:40:28;;;;;;;1.70;1.60;;;2.10;98.20;;;;;;6147413;23;20448;-73
2023/01/28 07:42:55;;;;;;;1.67;1.47;;;2.10;98.20;;;;;;6181374;23;20674;-73
2023/01/28 07:45:25;;;;;;;1.63;1.50;;;2.10;98.20;;;;;;6148472;23;20794;-73
2023/01/28 07:47:57;;;;;;;1.70;1.60;;;2.10;98.20;;;;;;6179535;22;20451;-73
2023/01/28 07:50:24;;;;;;;1.80;1.70;;;2.10;98.20;;;;;;6157638;23;20425;-73
2023/01/28 07:52:52;;;;;;;1.60;1.40;;;2.10;98.20;;;;;;6181213;23;20478;-73
2023/01/28 07:55:19;;;;;;;1.67;1.40;;;2.10;98.20;;;;;;6157685;23;20532;-73
2023/01/28 07:57:51;;;;;;;1.63;1.40;;;2.10;98.20;;;;;;6177097;22;20466;-73
2023/01/28 08:00:19;;;;;;;1.63;1.40;;;2.20;98.20;;;;;;6147824;23;20451;-73
2023/01/28 08:02:48;;;;;;;1.63;1.40;;;2.20;98.20;;;;;;6180943;22;20447;-73
2023/01/28 08:05:20;;;;;;;1.60;1.50;;;2.20;98.20;;;;;;6147276;23;20472;-73
2023/01/28 08:07:48;;;;;;;1.80;1.70;;;2.20;98.20;;;;;;6178532;23;20470;-73
2023/01/28 08:10:16;;;;;;;1.63;1.40;;;2.20;98.20;;;;;;6147424;23;20421;-72
2023/01/28 08:12:52;;;;;;;1.63;1.50;;;2.20;98.20;;;;;;6175253;23;20460;-73
2023/01/28 08:15:20;;;;;;;1.67;1.50;;;2.20;98.20;;;;;;6145470;23;20532;-73
2023/01/28 08:17:48;;;;;;;1.70;1.50;;;2.20;98.20;;;;;;6174810;22;20479;-73
2023/01/28 08:51:28;;;;;;;1.70;1.50;;;2.40;98.20;;;;;;6141753;23;20497;-72
2023/01/28 08:53:55;;;;;;;1.60;1.50;;;2.50;98.20;;;;;;6174980;23;20918;-73
2023/01/28 08:56:23;;;;;;;1.67;1.40;;;2.50;98.20;;;;;;6140689;23;20787;-72
2023/01/28 08:58:51;;;;;;;1.60;1.40;;;2.50;98.20;;;;;;6187055;23;20421;-72
2023/01/28 09:01:18;;;;;;;1.70;1.50;;;2.50;98.20;;;;;;6140384;23;20450;-73
2023/01/28 09:03:46;;;;;;;1.63;1.40;;;2.60;98.20;;;;;;6178486;23;21003;-73
2023/01/28 09:06:14;;;;;;;1.70;1.50;;;2.60;98.20;;;;;;6137554;23;20592;-73
2023/01/28 09:08:43;;;;;;;1.67;1.40;;;2.60;98.20;;;;;;6175992;23;20428;-73
2023/01/28 09:11:11;;;;;;;1.63;1.40;;;2.60;98.20;;;;;;6137226;22;20489;-73
2023/01/28 09:13:39;;;;;;;1.67;1.30;;;2.60;98.20;;;;;;6191404;23;20797;-73
2023/01/28 09:16:07;;;;;;;1.67;1.40;;;2.60;98.20;;;;;;6143705;23;20456;-73
2023/01/28 09:18:36;;;;;;;1.70;1.50;;;2.60;98.20;;;;;;6193499;23;20425;-73
2023/01/28 09:21:06;;;;;;;1.67;1.40;;;2.70;98.20;;;;;;6143648;23;20468;-73
2023/01/28 09:23:36;;;;;;;1.60;1.40;;;2.70;98.20;;;;;;6186594;23;20516;-73
2023/01/28 09:26:08;;;;;;;1.70;1.50;;;2.60;98.20;;;;;;6139220;22;20446;-72
2023/01/28 09:28:37;;;;;;;1.70;1.50;;;2.60;98.20;;;;;;6184593;23;20500;-73
2023/01/28 09:31:08;;;;;;;1.60;1.40;;;2.60;98.20;;;;;;6136053;22;21427;-73
2023/01/28 09:33:37;;;;;;;1.60;1.40;;;2.70;98.20;;;;;;6182389;23;20467;-73
2023/01/28 09:36:10;;;;;;;1.63;1.40;;;2.70;98.20;;;;;;6132213;23;20495;-71
2023/01/28 09:38:38;;;;;;;1.67;1.40;;;2.70;98.20;;;;;;6181365;23;20608;-72
2023/01/28 09:41:33;;;;;;;1.67;1.50;;;2.70;98.20;;;;;;6142364;23;20539;-74
2023/01/28 09:44:13;;;;;;;1.70;1.50;;;2.70;98.20;;;;;;6182929;23;20488;-74
2023/01/28 09:46:44;;;;;;;1.70;1.50;;;2.70;98.20;;;;;;6148517;23;20474;-73
2023/01/28 09:49:19;;;;;;;1.70;1.40;;;2.70;98.20;;;;;;6177380;23;20451;-73
2023/01/28 09:51:51;;;;;;;1.67;1.40;;;2.70;98.20;;;;;;6152546;22;20476;-73
2023/01/28 09:54:29;;;;;;;1.60;1.40;;;2.70;98.20;;;;;;6165557;23;20435;-73
2023/01/28 09:57:05;;;;;;;1.60;1.30;;;2.60;98.20;;;;;;6159732;23;21116;-74
2023/01/28 09:59:36;;;;;;;1.70;1.60;;;2.70;98.20;;;;;;6159795;23;20439;-73
2023/01/28 10:02:18;;;;;;;1.67;1.40;;;2.70;98.20;;;;;;6164641;23;20504;-74
2023/01/28 10:05:00;;;;;;;1.60;1.40;;;2.80;98.20;;;;;;6155485;23;20480;-74
2023/01/28 10:07:37;;;;;;;1.67;1.40;;;2.80;98.20;;;;;;6168023;23;20451;-73
2023/01/28 10:10:10;;;;;;;1.70;1.40;;;2.90;98.20;;;;;;6147933;23;20419;-73
2023/01/28 10:12:55;;;;;;;1.83;1.73;;;2.90;98.20;;;;;;6173321;22;20477;-73
2023/01/28 10:15:48;;;;;;;1.70;1.50;;;2.90;98.20;;;;;;6143950;23;20441;-73
2023/01/28 10:18:18;;;;;;;1.60;1.40;;;2.90;98.20;;;;;;6126201;23;20971;-73
2023/01/28 10:20:50;;;;;;;1.70;1.50;;;2.90;98.20;;;;;;6152182;23;20449;-74
2023/01/28 10:23:42;;;;;;;1.67;1.40;;;2.90;98.20;;;;;;6136633;23;20664;-73
2023/01/28 10:26:19;;;;;;;1.70;1.40;;;2.90;98.20;;;;;;6137492;22;20459;-73
2023/01/28 10:28:53;;;;;;;1.60;1.30;;;2.90;98.20;;;;;;6175023;23;20709;-73
2023/01/28 10:31:24;;;;;;;1.60;1.40;;;2.80;98.20;;;;;;6139653;22;20438;-73
2023/01/28 10:33:52;;;;;;;1.63;1.50;;;2.90;98.20;;;;;;6183461;23;20401;-73
2023/01/28 10:36:20;;;;;;;1.70;1.50;;;3.00;98.20;;;;;;6137671;23;20470;-73
2023/01/28 10:38:47;;;;;;;1.70;1.50;;;3.10;98.20;;;;;;6175676;23;20927;-73
2023/01/28 10:41:21;;;;;;;1.70;1.50;;;3.20;98.20;;;;;;6137861;22;20447;-73
2023/01/28 10:43:50;;;;;;;1.63;1.40;;;3.20;98.20;;;;;;6174412;23;20437;-73
2023/01/28 10:46:21;;;;;;;1.70;1.50;;;3.20;98.20;;;;;;6137943;22;20450;-73
2023/01/28 10:48:58;;;;;;;1.63;1.30;;;3.10;98.20;;;;;;6174375;23;20794;-73
2023/01/28 10:51:33;;;;;;;3.43;3.23;;;3.10;98.20;;;;;;6141019;22;20954;-72
2023/01/28 10:54:02;;;;;;;1.70;1.43;;;3.10;98.20;;;;;;6171211;23;20432;-72
2023/01/28 10:56:34;;;;;;;1.60;1.30;;;3.10;98.20;;;;;;6145137;22;20455;-72
2023/01/28 10:59:07;;;;;;;1.70;1.50;;;3.10;98.20;;;;;;6168744;23;20414;-73
2023/01/28 11:01:45;;;;;;;1.60;1.30;;;3.00;98.20;;;;;;6147682;23;20458;-72
2023/01/28 11:04:20;;;;;;;1.60;1.40;;;3.00;98.20;;;;;;6169250;23;20495;-72
2023/01/28 11:06:57;;;;;;;1.67;1.40;;;3.00;98.20;;;;;;6150978;23;20465;-72
2023/01/28 11:10:00;;;;;;;1.60;1.40;;;3.10;98.20;;;;;;6173823;23;20583;-73
2023/01/28 11:12:33;;;;;;;1.60;1.40;;;3.10;98.20;;;;;;6168261;22;20867;-71
2023/01/28 11:15:24;;;;;;;1.70;1.47;;;3.10;98.20;;;;;;6150586;23;20437;-73
2023/01/28 11:18:02;;;;;;;1.60;1.40;;;3.20;98.20;;;;;;6182918;22;20827;-73
2023/01/28 11:20:45;;;;;;;1.80;1.70;;;3.20;98.20;;;;;;6157694;23;20499;-73
2023/01/28 11:24:03;;;;;;;1.60;1.30;;;3.30;98.20;;;;;;6133193;23;20444;-73
2023/01/28 11:29:56;;;;;;;1.63;1.30;;;3.50;98.20;;;;;;6162988;23;20460;-73
2023/01/28 11:32:28;;;;;;;1.60;1.30;;;3.50;98.20;;;;;;6167007;22;20747;-73
2023/01/28 11:35:03;;;;;;;1.70;1.40;;;3.50;98.20;;;;;;6160600;23;20771;-73
2023/01/28 11:37:56;;;;;;;1.60;1.30;;;3.40;98.20;;;;;;6168715;23;20455;-73
2023/01/28 11:40:41;;;;;;;1.60;1.30;;;3.30;98.20;;;;;;6157305;23;20448;-72
2023/01/28 11:43:26;;;;;;;1.70;1.43;;;3.20;98.20;;;;;;6179095;23;20781;-73
2023/01/28 11:46:38;;;;;;;1.70;1.40;;;3.20;98.20;;;;;;6140788;22;20471;-73
2023/01/28 11:49:26;;;;;;;1.70;1.50;;;3.20;98.20;;;;;;6154867;23;20435;-73
2023/01/28 11:52:09;;;;;;;1.70;1.40;;;3.10;98.20;;;;;;6159598;23;20446;-73
2023/01/28 11:54:56;;;;;;;1.60;1.40;;;3.10;98.20;;;;;;6167744;23;20928;-73
2023/01/28 11:57:40;;;;;;;1.67;1.40;;;3.00;98.20;;;;;;6168420;23;20451;-73
2023/01/28 12:00:47;;;;;;;1.87;1.77;;;3.00;98.20;;;;;;6154119;23;20448;-73
2023/01/28 12:04:02;;;;;;;1.63;1.40;;;3.00;98.20;;;;;;6125441;23;20436;-73
2023/01/28 12:07:02;;;;;;;1.60;1.37;;;3.00;98.20;;;;;;6144637;23;20450;-72
2023/01/28 12:09:38;;;;;;;1.70;1.53;;;3.00;98.20;;;;;;6171247;23;20971;-72
2023/01/28 12:12:37;;;;;;;1.60;1.40;;;3.10;98.20;;;;;;6158841;22;20530;-72
2023/01/28 12:15:22;;;;;;;1.63;1.40;;;3.10;98.20;;;;;;6157118;23;20497;-72
2023/01/28 12:18:08;;;;;;;1.60;1.30;;;3.00;98.20;;;;;;6172766;23;20861;-73
2023/01/28 12:24:14;;;;;;;1.60;1.40;;;3.10;98.20;;;;;;6124758;23;20933;-73
2023/01/28 12:27:09;;;;;;;1.70;1.40;;;3.20;98.20;;;;;;6152521;23;20529;-72
2023/01/28 12:32:49;;;;;;;1.70;1.40;;;3.10;98.20;;;;;;6155932;23;20455;-73
2023/01/28 12:38:48;;;;;;;1.67;1.43;;;3.10;98.20;;;;;;6139633;23;20919;-73
2023/01/28 12:41:25;;;;;;;1.67;1.40;;;3.10;98.20;;;;;;6135477;23;20440;-73
2023/01/28 12:47:22;;;;;;;1.70;1.40;;;3.10;98.20;;;;;;6157385;23;20673;-73
2023/01/28 12:49:56;;;;;;;1.60;1.40;;;3.20;98.20;;;;;;6162889;23;20401;-73
2023/01/28 12:52:31;;;;;;;1.60;1.33;;;3.10;98.20;;;;;;6167331;23;20454;-74
2023/01/28 12:55:05;;;;;;;1.60;1.33;;;3.10;98.20;;;;;;6154512;23;20432;-72
2023/01/28 12:57:39;;;;;;;1.60;1.40;;;3.10;98.20;;;;;;6167779;23;20463;-72
2023/01/28 13:00:30;;;;;;;2.13;1.93;;;3.20;98.20;;;;;;6155462;23;20402;-74
2023/01/28 13:03:09;;;;;;;1.60;1.40;;;3.20;98.20;;;;;;6175489;23;20506;-73
2023/01/28 13:05:44;;;;;;;1.60;1.30;;;3.40;98.20;;;;;;6150996;23;20452;-72
2023/01/28 13:08:17;;;;;;;1.60;1.30;;;3.50;98.20;;;;;;6170028;23;20452;-72
2023/01/28 13:10:46;;;;;;;1.70;1.50;;;3.60;98.20;;;;;;6148033;23;20816;-72
2023/01/28 13:13:19;;;;;;;1.70;1.43;;;3.40;98.20;;;;;;6122330;23;20484;-71
2023/01/28 13:15:50;;;;;;;1.60;1.30;;;3.50;98.20;;;;;;6137828;23;20523;-72
2023/01/28 13:18:47;;;;;;;1.60;1.30;;;3.60;98.20;;;;;;6171151;23;20590;-73
2023/01/28 13:21:32;;;;;;;1.60;1.30;;;3.70;98.20;;;;;;6136747;23;20447;-73
2023/01/28 13:24:23;;;;;;;1.60;1.30;;;3.80;98.20;;;;;;6181889;23;20424;-73
2023/01/28 13:26:52;;;;;;;1.70;1.40;;;4.00;98.00;;;;;;6155541;23;20454;-74
2023/01/28 13:29:30;;;;;;;1.67;1.40;;;4.00;96.90;;;;;;6164906;23;21055;-73
2023/01/28 13:32:00;;;;;;;1.60;1.30;;;3.90;97.70;;;;;;6153759;23;20784;-74
2023/01/28 13:34:35;;;;;;;1.80;1.60;;;3.90;97.00;;;;;;6166829;23;20531;-73
2023/01/28 13:37:08;;;;;;;2.33;2.13;;;4.00;98.20;;;;;;6150663;23;20454;-73
2023/01/28 13:39:37;;;;;;;1.67;1.40;;;4.10;98.20;;;;;;6165980;23;20475;-73
2023/01/28 13:42:22;;;;;;;1.70;1.50;;;4.10;98.20;;;;;;6157319;23;20586;-71
2023/01/28 13:44:52;;;;;;;1.70;1.50;;;4.10;98.20;;;;;;6148398;23;20413;-72
2023/01/28 13:47:33;;;;;;;1.70;1.50;;;4.00;98.20;;;;;;6162525;23;20455;-72
2023/01/28 13:50:04;;;;;;;1.60;1.30;;;3.80;98.20;;;;;;6143056;23;20416;-73
2023/01/28 13:52:36;;;;;;;1.63;1.40;;;3.70;98.20;;;;;;6168588;23;20525;-73
2023/01/28 13:55:14;;;;;;;4.13;3.93;;;3.60;98.20;;;;;;6142291;23;20417;-72
2023/01/28 13:58:13;;;;;;;1.60;1.30;;;3.60;98.20;;;;;;6166613;23;21035;-73
2023/01/28 14:01:28;;;;;;;1.60;1.40;;;3.60;98.20;;;;;;6140917;23;20544;-72
2023/01/28 14:04:39;;;;;;;1.63;1.30;;;3.60;98.20;;;;;;6125105;23;20445;-72
2023/01/28 14:07:21;;;;;;;1.63;1.33;;;3.70;98.20;;;;;;6155014;23;20454;-73
2023/01/28 14:10:23;;;;;;;1.60;1.40;;;3.70;98.20;;;;;;6150266;23;20409;-73
2023/01/28 14:13:16;;;;;;;1.67;1.40;;;3.60;98.20;;;;;;6136957;23;20478;-72
2023/01/28 14:16:09;;;;;;;1.67;1.40;;;3.60;98.20;;;;;;6141705;23;20457;-72
2023/01/28 14:18:41;;;;;;;1.70;1.50;;;3.60;98.20;;;;;;6126973;23;20432;-73
2023/01/28 14:21:13;;;;;;;1.70;1.50;;;3.60;98.20;;;;;;6143202;23;21584;-73
2023/01/28 14:23:47;;;;;;;1.67;1.40;;;3.60;98.20;;;;;;6188313;23;20436;-71
2023/01/28 14:26:31;;;;;;;1.67;1.40;;;3.60;98.20;;;;;;6150675;23;21038;-73
2023/01/28 14:29:10;;;;;;;1.67;1.40;;;3.50;98.20;;;;;;6180166;23;20508;-73
2023/01/28 14:31:40;;;;;;;1.70;1.50;;;3.50;98.20;;;;;;6153320;23;20450;-73
2023/01/28 14:34:15;;;;;;;1.60;1.40;;;3.50;98.20;;;;;;6167751;23;20921;-73
2023/01/28 14:36:46;;;;;;;1.67;1.40;;;3.50;98.20;;;;;;6146641;23;20491;-73
2023/01/28 14:39:19;;;;;;;1.63;1.37;;;3.40;98.20;;;;;;6175456;23;20401;-73
2023/01/28 14:41:49;;;;;;;1.60;1.30;;;3.30;98.20;;;;;;6149835;23;20450;-73
2023/01/28 14:44:28;;;;;;;1.60;1.30;;;3.20;98.20;;;;;;6164361;23;20456;-74
2023/01/28 14:47:15;;;;;;;1.60;1.40;;;3.10;98.20;;;;;;6153331;23;20455;-73
2023/01/28 14:49:59;;;;;;;1.60;1.50;;;3.00;98.20;;;;;;6156223;23;20851;-73
2023/01/28 14:52:46;;;;;;;1.60;1.50;;;2.90;98.20;;;;;;6168353;23;20849;-73
2023/01/28 14:55:34;;;;;;;3.40;2.07;;;2.90;98.20;;;;;;6141863;23;20457;-73
2023/01/28 14:58:04;;;;;;;1.67;1.50;;;2.80;98.20;;;;;;6173525;23;20450;-73
2023/01/28 15:00:34;;;;;;;1.63;1.40;;;2.80;98.20;;;;;;6141044;23;20417;-73
2023/01/28 15:03:18;;;;;;;1.60;1.40;;;2.70;98.20;;;;;;6173870;23;20450;-73
2023/01/28 15:06:02;;;;;;;1.70;1.50;;;2.70;98.20;;;;;;6142825;23;20787;-73
2023/01/28 15:08:31;;;;;;;1.70;1.40;;;2.60;98.20;;;;;;6124130;23;20432;-73
2023/01/28 15:11:18;;;;;;;1.70;1.50;;;2.50;98.20;;;;;;6158142;23;20449;-72
2023/01/28 15:13:52;;;;;;;1.70;1.50;;;2.40;98.20;;;;;;6173190;23;20478;-73
2023/01/28 15:16:22;;;;;;;1.63;1.40;;;2.40;98.20;;;;;;6136179;23;20509;-73
2023/01/28 15:18:51;;;;;;;1.60;1.40;;;2.30;98.20;;;;;;6173597;23;20413;-71
2023/01/28 15:21:23;;;;;;;1.70;1.50;;;2.30;98.20;;;;;;6136423;23;20985;-72
2023/01/28 15:26:48;;;;;;;1.70;1.50;;;2.20;98.20;;;;;;6174974;22;20461;-74
2023/01/28 15:29:25;;;;;;;1.60;1.50;;;2.20;98.20;;;;;;6195774;23;20507;-74
2023/01/28 15:32:02;;;;;;;1.63;1.40;;;2.10;98.20;;;;;;6183690;22;20487;-73
2023/01/28 15:34:40;;;;;;;1.60;1.40;;;2.10;98.20;;;;;;6189203;23;20412;-73
2023/01/28 15:37:25;;;;;;;1.70;1.60;;;2.00;98.20;;;;;;6191518;22;20450;-73
2023/01/28 15:40:05;;;;;;;1.60;1.40;;;2.00;98.20;;;;;;6177944;23;20522;-73
2023/01/28 15:42:39;;;;;;;1.70;1.50;;;1.90;98.20;;;;;;6197791;22;20450;-73
2023/01/28 15:45:16;;;;;;;1.60;1.50;;;1.90;98.20;;;;;;6172874;23;20578;-73
2023/01/28 15:47:43;;;;;;;1.63;1.50;;;1.80;98.20;;;;;;6201814;22;20968;-73
2023/01/28 15:50:19;;;;;;;1.70;1.57;;;1.80;98.20;;;;;;6171303;23;20543;-73
2023/01/28 15:52:47;;;;;;;1.70;1.50;;;1.70;98.20;;;;;;6203612;22;20488;-72
2023/01/28 15:55:36;;;;;;;1.70;1.60;;;1.70;98.20;;;;;;6180436;23;20852;-73
2023/01/28 15:58:29;;;;;;;1.60;1.50;;;1.60;98.20;;;;;;6205877;22;20952;-73
2023/01/28 16:01:24;;;;;;;1.70;1.60;;;1.60;98.20;;;;;;6156492;22;20514;-71
2023/01/28 16:04:02;;;;;;;1.63;1.50;;;1.50;98.20;;;;;;6204301;23;20491;-72
2023/01/28 16:06:37;;;;;;;1.67;1.50;;;1.40;98.20;;;;;;6172421;22;21110;-72
2023/01/28 16:09:07;;;;;;;1.60;1.50;;;1.40;98.20;;;;;;6198703;23;20408;-73
2023/01/28 16:11:40;;;;;;;1.60;1.50;;;1.30;98.20;;;;;;6181627;22;20820;-72
2023/01/28 16:14:23;;;;;;;1.70;1.50;;;1.20;98.20;;;;;;6208109;23;20998;-74
2023/01/28 16:16:50;;;;;;;1.67;1.50;;;1.20;98.20;;;;;;6182765;22;20988;-73
2023/01/28 16:19:32;;;;;;;1.70;1.60;;;1.10;98.20;;;;;;6192265;23;20530;-72
2023/01/28 16:22:01;;;;;;;1.80;1.70;;;1.00;98.20;;;;;;6183343;22;20988;-73
2023/01/28 16:24:31;;;;;;;1.63;1.50;;;1.00;98.20;;;;;;6201384;23;20815;-72
2023/01/28 16:27:04;;;;;;;1.70;1.50;;;0.90;98.20;;;;;;6183167;22;21010;-72
2023/01/28 16:29:32;;;;;;;1.70;1.60;;;0.80;98.20;;;;;;6187144;23;20466;-72
2023/01/28 16:31:59;;;;;;;1.70;1.57;;;0.70;98.20;;;;;;6185634;22;20883;-71
2023/01/28 16:34:27;;;;;;;1.67;1.53;;;0.70;98.20;;;;;;6189881;23;20511;-72
2023/01/28 16:36:56;;;;;;;1.60;1.50;;;0.60;98.20;;;;;;6181512;22;20449;-72
2023/01/28 16:39:25;;;;;;;1.60;1.50;;;0.60;98.20;;;;;;6189771;23;20822;-71
2023/01/28 16:41:52;;;;;;;15.90;14.97;;;0.60;98.20;;;;;;6180919;22;20801;-71
2023/01/28 16:44:20;;;;;;;1.70;1.60;;;0.60;98.20;;;;;;6190515;23;20459;-71